createdAt,value
2022-10-26T00:01:56.993Z,10.63
2022-10-26T00:04:23.495Z,6.95
2022-10-26T00:06:49.878Z,9.13
2022-10-26T00:09:16.261Z,8.57
2022-10-26T00:11:42.645Z,8.75
2022-10-26T00:14:09.040Z,9.30
2022-10-26T00:16:35.410Z,8.52
2022-10-26T00:19:01.805Z,9.60
2022-10-26T00:21:28.202Z,10.32
2022-10-26T00:23:54.582Z,9.45
2022-10-26T00:26:20.983Z,8.93
2022-10-26T00:28:47.594Z,8.35
2022-10-26T00:31:15.080Z,6.00
2022-10-26T00:33:41.550Z,7.05
2022-10-26T00:36:09.997Z,8.50
2022-10-26T00:38:36.975Z,9.65
2022-10-26T00:41:03.387Z,10.70
2022-10-26T00:43:29.716Z,12.02
2022-10-26T00:45:57.458Z,10.02
2022-10-26T00:48:31.490Z,9.23
2022-10-26T00:51:00.844Z,7.80
2022-10-26T00:53:27.354Z,5.55
2022-10-26T00:55:54.017Z,7.05
2022-10-26T00:58:21.514Z,8.38
2022-10-26T01:00:48.743Z,7.53
2022-10-26T01:03:15.633Z,7.72
2022-10-26T01:05:43.813Z,9.15
2022-10-26T01:08:10.418Z,8.60
2022-10-26T01:10:38.726Z,7.63
2022-10-26T01:13:05.407Z,6.82
2022-10-26T01:15:42.629Z,8.30
2022-10-26T01:18:13.246Z,8.30
2022-10-26T01:20:50.966Z,7.82
2022-10-26T01:23:34.084Z,11.00
2022-10-26T01:26:18.096Z,6.03
2022-10-26T01:28:50.735Z,10.85
2022-10-26T01:31:20.960Z,7.60
2022-10-26T01:34:01.759Z,9.38
2022-10-26T01:39:15.010Z,7.18
2022-10-26T01:41:53.254Z,9.75
2022-10-26T01:44:39.665Z,6.00
2022-10-26T01:47:06.857Z,5.38
2022-10-26T01:49:35.584Z,7.75
2022-10-26T01:52:01.978Z,6.45
2022-10-26T01:54:29.343Z,6.30
2022-10-26T01:56:57.358Z,6.90
2022-10-26T01:59:32.821Z,9.02
2022-10-26T02:02:21.328Z,5.50
2022-10-26T02:04:58.416Z,5.68
2022-10-26T02:07:36.521Z,7.53
2022-10-26T02:10:09.150Z,8.48
2022-10-26T02:12:45.287Z,5.50
2022-10-26T02:15:17.793Z,8.30
2022-10-26T02:17:47.484Z,7.65
2022-10-26T02:20:18.257Z,6.57
2022-10-26T02:22:46.624Z,8.00
2022-10-26T02:25:17.030Z,11.52
2022-10-26T02:27:46.878Z,6.70
2022-10-26T02:30:13.702Z,7.18
2022-10-26T02:32:42.741Z,14.40
2022-10-26T02:35:09.681Z,4.78
2022-10-26T02:37:36.513Z,6.03
2022-10-26T02:40:04.647Z,9.77
2022-10-26T02:42:31.836Z,7.05
2022-10-26T02:45:00.488Z,7.80
2022-10-26T02:47:27.497Z,6.68
2022-10-26T02:49:54.498Z,9.23
2022-10-26T02:52:32.794Z,9.68
2022-10-26T02:55:10.008Z,8.25
2022-10-26T02:57:40.588Z,6.07
2022-10-26T03:00:08.275Z,6.50
2022-10-26T03:02:34.720Z,9.38
2022-10-26T03:05:20.118Z,13.43
2022-10-26T03:07:46.546Z,5.28
2022-10-26T03:10:12.924Z,5.45
2022-10-26T03:12:39.311Z,7.70
2022-10-26T03:15:05.970Z,7.72
2022-10-26T03:17:32.411Z,12.85
2022-10-26T03:19:58.807Z,7.10
2022-10-26T03:22:25.225Z,9.93
2022-10-26T03:24:51.604Z,10.73
2022-10-26T03:27:17.989Z,4.38
2022-10-26T03:29:44.357Z,10.50
2022-10-26T03:32:10.742Z,6.65
2022-10-26T03:34:37.146Z,6.63
2022-10-26T03:37:03.589Z,6.63
2022-10-26T03:39:29.971Z,4.97
2022-10-26T03:41:56.415Z,8.20
2022-10-26T03:44:22.886Z,7.45
2022-10-26T03:46:49.370Z,6.68
2022-10-26T03:49:15.777Z,5.13
2022-10-26T03:51:42.180Z,7.28
2022-10-26T03:54:08.857Z,6.82
2022-10-26T03:56:35.244Z,8.88
2022-10-26T03:59:01.607Z,8.15
2022-10-26T04:01:28.059Z,6.65
2022-10-26T04:03:54.528Z,7.25
2022-10-26T04:06:20.934Z,5.20
2022-10-26T04:08:47.400Z,8.10
2022-10-26T04:11:13.764Z,13.90
2022-10-26T04:13:40.168Z,7.47
2022-10-26T04:16:06.664Z,6.90
2022-10-26T04:18:33.042Z,5.50
2022-10-26T04:21:02.470Z,7.68
2022-10-26T04:23:28.870Z,7.53
2022-10-26T04:25:55.369Z,3.83
2022-10-26T04:28:21.737Z,6.68
2022-10-26T04:30:48.302Z,6.93
2022-10-26T04:33:14.712Z,10.38
2022-10-26T04:35:41.085Z,8.13
2022-10-26T04:38:07.558Z,7.43
2022-10-26T04:40:34.310Z,6.78
2022-10-26T04:43:01.039Z,6.68
2022-10-26T04:45:38.813Z,4.25
2022-10-26T04:48:06.685Z,9.90
2022-10-26T04:50:33.740Z,5.72
2022-10-26T04:53:03.003Z,6.53
2022-10-26T04:55:29.486Z,6.30
2022-10-26T04:57:58.480Z,5.40
2022-10-26T05:00:27.650Z,4.38
2022-10-26T05:02:59.368Z,6.07
2022-10-26T05:05:25.797Z,9.90
2022-10-26T05:07:56.092Z,11.65
2022-10-26T05:10:23.166Z,3.88
2022-10-26T05:12:53.157Z,9.65
2022-10-26T05:15:19.856Z,9.43
2022-10-26T05:17:46.759Z,10.40
2022-10-26T05:20:14.419Z,11.45
2022-10-26T05:22:41.355Z,7.38
2022-10-26T05:25:08.030Z,8.38
2022-10-26T05:27:34.415Z,5.82
2022-10-26T05:30:00.857Z,10.15
2022-10-26T05:32:27.277Z,6.38
2022-10-26T05:34:53.668Z,7.75
2022-10-26T05:37:20.065Z,6.03
2022-10-26T05:39:46.551Z,9.10
2022-10-26T05:42:13.156Z,6.97
2022-10-26T05:44:39.639Z,5.90
2022-10-26T05:47:06.372Z,6.60
2022-10-26T05:49:32.777Z,9.60
2022-10-26T05:51:59.168Z,4.00
2022-10-26T05:54:25.561Z,4.85
2022-10-26T05:56:52.135Z,6.55
2022-10-26T05:59:20.313Z,5.60
2022-10-26T06:01:52.187Z,4.13
2022-10-26T06:04:38.443Z,5.13
2022-10-26T06:07:11.396Z,4.78
2022-10-26T06:09:38.377Z,13.45
2022-10-26T06:12:05.424Z,6.47
2022-10-26T06:14:32.204Z,6.50
2022-10-26T06:17:13.834Z,3.78
2022-10-26T06:19:40.267Z,4.07
2022-10-26T06:22:21.999Z,4.40
2022-10-26T06:24:53.809Z,5.93
2022-10-26T06:27:42.036Z,5.68
2022-10-26T06:30:12.516Z,6.75
2022-10-26T06:32:40.096Z,9.88
2022-10-26T06:35:25.318Z,12.07
2022-10-26T06:37:52.891Z,10.23
2022-10-26T06:40:19.658Z,5.80
2022-10-26T06:42:46.493Z,8.32
2022-10-26T06:45:17.460Z,6.38
2022-10-26T06:47:57.345Z,8.35
2022-10-26T06:50:26.883Z,10.40
2022-10-26T06:53:01.453Z,6.47
2022-10-26T06:55:31.289Z,3.92
2022-10-26T06:57:58.549Z,4.85
2022-10-26T07:00:25.457Z,6.05
2022-10-26T07:02:52.484Z,7.82
2022-10-26T07:05:20.020Z,5.78
2022-10-26T07:07:47.213Z,5.95
2022-10-26T07:10:15.091Z,5.45
2022-10-26T07:12:41.539Z,7.10
2022-10-26T07:15:10.994Z,5.88
2022-10-26T07:17:44.976Z,6.45
2022-10-26T07:20:11.993Z,3.63
2022-10-26T07:22:38.783Z,4.72
2022-10-26T07:25:06.854Z,7.55
2022-10-26T07:27:33.505Z,5.85
2022-10-26T07:29:59.901Z,7.13
2022-10-26T07:32:26.566Z,4.20
2022-10-26T07:34:52.976Z,7.82
2022-10-26T07:37:19.440Z,6.63
2022-10-26T07:39:45.823Z,4.18
2022-10-26T07:42:12.229Z,10.27
2022-10-26T07:44:38.609Z,6.30
2022-10-26T07:47:07.451Z,7.70
2022-10-26T07:49:34.431Z,6.05
2022-10-26T07:52:00.834Z,5.28
2022-10-26T07:54:27.248Z,4.85
2022-10-26T07:56:53.811Z,5.88
2022-10-26T07:59:21.680Z,7.50
2022-10-26T08:01:48.131Z,4.10
2022-10-26T08:04:14.706Z,5.88
2022-10-26T08:06:41.173Z,7.07
2022-10-26T08:09:07.780Z,5.70
2022-10-26T08:11:36.913Z,6.38
2022-10-26T08:14:04.006Z,4.45
2022-10-26T08:16:31.270Z,4.07
2022-10-26T08:18:57.720Z,9.27
2022-10-26T08:21:36.271Z,3.72
2022-10-26T08:24:06.338Z,8.60
2022-10-26T08:26:32.789Z,5.78
2022-10-26T08:28:59.250Z,5.93
2022-10-26T08:31:25.705Z,7.75
2022-10-26T08:33:52.374Z,4.43
2022-10-26T08:36:22.972Z,7.07
2022-10-26T08:38:50.163Z,6.25
2022-10-26T08:41:16.895Z,6.60
2022-10-26T08:43:54.631Z,5.68
2022-10-26T08:46:27.864Z,5.20
2022-10-26T08:49:14.046Z,5.68
2022-10-26T08:51:41.208Z,7.18
2022-10-26T08:54:20.913Z,9.23
2022-10-26T08:56:50.853Z,7.97
2022-10-26T08:59:38.269Z,5.57
2022-10-26T09:02:11.159Z,6.05
2022-10-26T09:04:37.649Z,5.78
2022-10-26T09:07:22.923Z,6.50
2022-10-26T09:10:01.412Z,5.32
2022-10-26T09:12:31.050Z,5.10
2022-10-26T09:15:04.961Z,3.40
2022-10-26T09:17:50.316Z,4.90
2022-10-26T09:20:16.774Z,5.22
2022-10-26T09:22:43.171Z,6.30
2022-10-26T09:25:20.951Z,7.03
2022-10-26T09:27:49.650Z,7.07
2022-10-26T09:30:18.467Z,5.28
2022-10-26T09:32:47.494Z,4.18
2022-10-26T09:38:03.467Z,5.72
2022-10-26T09:40:29.974Z,5.38
2022-10-26T09:43:02.382Z,7.43
2022-10-26T09:45:36.788Z,7.25
2022-10-26T09:48:10.150Z,5.00
2022-10-26T09:50:39.127Z,5.63
2022-10-26T09:53:05.542Z,5.72
2022-10-26T09:55:32.957Z,6.78
2022-10-26T09:58:02.441Z,7.40
2022-10-26T10:00:29.718Z,6.03
2022-10-26T10:02:57.342Z,3.08
2022-10-26T10:05:39.081Z,5.78
2022-10-26T10:08:16.346Z,4.85
2022-10-26T10:11:01.558Z,4.20
2022-10-26T10:13:29.676Z,4.10
2022-10-26T10:16:19.059Z,5.18
2022-10-26T10:18:52.543Z,5.18
2022-10-26T10:21:18.980Z,4.57
2022-10-26T10:23:49.694Z,7.03
2022-10-26T10:26:16.318Z,6.28
2022-10-26T10:28:43.126Z,6.70
2022-10-26T10:31:19.900Z,5.57
2022-10-26T10:33:46.772Z,3.95
2022-10-26T10:36:18.407Z,5.25
2022-10-26T10:38:48.322Z,5.40
2022-10-26T10:41:36.919Z,5.35
2022-10-26T10:44:09.812Z,4.63
2022-10-26T10:46:38.613Z,7.03
2022-10-26T10:49:06.645Z,5.47
2022-10-26T10:51:40.040Z,4.82
2022-10-26T10:54:11.678Z,5.10
2022-10-26T10:56:39.328Z,5.93
2022-10-26T10:59:10.834Z,5.82
2022-10-26T11:01:46.217Z,5.57
2022-10-26T11:04:21.938Z,5.22
2022-10-26T11:06:48.707Z,6.07
2022-10-26T11:09:16.799Z,6.38
2022-10-26T11:11:45.647Z,9.70
2022-10-26T11:14:22.683Z,5.68
2022-10-26T11:16:52.793Z,8.65
2022-10-26T11:19:24.702Z,6.28
2022-10-26T11:21:53.489Z,14.23
2022-10-26T11:24:31.829Z,4.68
2022-10-26T11:27:02.634Z,4.95
2022-10-26T11:29:35.173Z,3.13
2022-10-26T11:32:20.404Z,4.32
2022-10-26T11:35:10.000Z,2.40
2022-10-26T11:37:49.758Z,2.33
2022-10-26T11:40:22.231Z,6.85
2022-10-26T11:42:52.479Z,2.58
2022-10-26T11:45:26.982Z,3.67
2022-10-26T11:48:07.276Z,4.60
2022-10-26T11:50:36.417Z,4.22
2022-10-26T11:53:09.153Z,4.07
2022-10-26T11:55:35.893Z,1.75
2022-10-26T11:58:03.115Z,3.22
2022-10-26T12:00:29.833Z,4.05
2022-10-26T12:03:06.731Z,5.22
2022-10-26T12:05:42.953Z,2.65
2022-10-26T12:08:14.626Z,3.38
2022-10-26T12:10:43.324Z,3.33
2022-10-26T12:13:17.942Z,1.73
2022-10-26T12:16:09.755Z,3.60
2022-10-26T12:18:56.566Z,8.75
2022-10-26T12:21:30.697Z,2.17
2022-10-26T12:23:58.751Z,2.63
2022-10-26T12:26:28.147Z,2.97
2022-10-26T12:29:03.647Z,4.85
2022-10-26T12:31:36.285Z,3.45
2022-10-26T12:34:05.761Z,5.32
2022-10-26T12:36:47.594Z,6.18
2022-10-26T12:39:26.406Z,2.50
2022-10-26T12:41:57.705Z,3.10
2022-10-26T12:44:42.512Z,2.50
2022-10-26T12:47:09.494Z,5.85
2022-10-26T12:49:55.163Z,4.32
2022-10-26T12:52:22.915Z,6.50
2022-10-26T12:55:04.004Z,2.58
2022-10-26T12:57:56.799Z,1.95
2022-10-26T13:00:25.063Z,3.83
2022-10-26T13:02:51.619Z,4.00
2022-10-26T13:05:27.177Z,3.97
2022-10-26T13:08:00.866Z,2.60
2022-10-26T13:10:27.381Z,3.30
2022-10-26T13:12:55.362Z,6.50
2022-10-26T13:15:27.922Z,3.75
2022-10-26T13:18:23.761Z,7.13
2022-10-26T13:21:00.154Z,2.38
2022-10-26T13:23:31.439Z,4.03
2022-10-26T13:26:04.219Z,2.17
2022-10-26T13:28:32.274Z,3.00
2022-10-26T13:30:58.754Z,6.15
2022-10-26T13:33:34.162Z,4.07
2022-10-26T13:36:11.013Z,2.80
2022-10-26T13:38:37.824Z,1.63
2022-10-26T13:41:07.175Z,3.70
2022-10-26T13:43:34.344Z,2.53
2022-10-26T13:46:02.524Z,2.45
2022-10-26T13:48:33.422Z,4.32
2022-10-26T13:51:02.408Z,4.55
2022-10-26T13:53:40.341Z,2.47
2022-10-26T13:56:27.933Z,4.80
2022-10-26T13:59:00.385Z,2.85
2022-10-26T14:01:28.672Z,3.10
2022-10-26T14:03:55.386Z,2.03
2022-10-26T14:06:30.641Z,5.78
2022-10-26T14:08:58.860Z,2.33
2022-10-26T14:11:31.520Z,3.95
2022-10-26T14:13:57.954Z,2.58
2022-10-26T14:16:26.700Z,3.08
2022-10-26T14:18:53.261Z,1.33
2022-10-26T14:21:21.467Z,3.08
2022-10-26T14:23:58.230Z,2.47
2022-10-26T14:26:27.059Z,2.40
2022-10-26T14:28:55.076Z,3.67
2022-10-26T14:31:22.993Z,4.53
2022-10-26T14:33:49.750Z,2.53
2022-10-26T14:36:16.893Z,3.55
2022-10-26T14:38:45.181Z,2.35
2022-10-26T14:41:13.927Z,5.80
2022-10-26T14:43:40.407Z,3.25
2022-10-26T14:46:12.991Z,1.42
2022-10-26T14:48:42.059Z,5.10
2022-10-26T14:51:15.998Z,3.42
2022-10-26T14:53:48.035Z,1.05
2022-10-26T14:56:22.883Z,6.70
2022-10-26T14:58:49.528Z,4.80
2022-10-26T15:01:22.205Z,6.35
2022-10-26T15:04:01.452Z,2.85
2022-10-26T15:06:27.921Z,4.38
2022-10-26T15:08:57.011Z,2.58
2022-10-26T15:11:24.116Z,5.53
2022-10-26T15:13:50.660Z,8.00
2022-10-26T15:16:24.948Z,1.30
2022-10-26T15:18:54.530Z,2.10
2022-10-26T15:21:25.704Z,3.88
2022-10-26T15:23:54.613Z,2.50
2022-10-26T15:26:21.379Z,4.32
2022-10-26T15:28:49.617Z,3.47
2022-10-26T15:31:16.070Z,1.88
2022-10-26T15:33:43.942Z,2.28
2022-10-26T15:36:17.479Z,3.25
2022-10-26T15:38:44.770Z,4.43
2022-10-26T15:41:20.437Z,2.65
2022-10-26T15:43:47.629Z,3.13
2022-10-26T15:46:14.291Z,2.70
2022-10-26T15:48:43.753Z,5.05
2022-10-26T15:51:16.834Z,3.97
2022-10-26T15:53:43.378Z,4.85
2022-10-26T15:56:14.588Z,4.32
2022-10-26T15:58:40.986Z,5.57
2022-10-26T16:01:07.543Z,4.22
2022-10-26T16:03:34.046Z,4.47
2022-10-26T16:06:01.461Z,6.03
2022-10-26T16:08:29.713Z,2.65
2022-10-26T16:10:56.183Z,5.90
2022-10-26T16:13:22.620Z,2.65
2022-10-26T16:15:49.119Z,2.63
2022-10-26T16:18:15.641Z,3.92
2022-10-26T16:20:45.012Z,5.63
2022-10-26T16:23:11.498Z,4.35
2022-10-26T16:25:42.614Z,3.67
2022-10-26T16:28:10.690Z,3.83
2022-10-26T16:30:37.216Z,5.00
2022-10-26T16:33:03.893Z,2.00
2022-10-26T16:35:30.313Z,2.45
2022-10-26T16:37:56.733Z,4.10
2022-10-26T16:40:23.374Z,2.65
2022-10-26T16:42:50.077Z,3.00
2022-10-26T16:45:17.097Z,4.13
2022-10-26T16:47:43.653Z,5.18
2022-10-26T16:50:13.624Z,1.77
2022-10-26T16:52:40.449Z,4.50
2022-10-26T16:55:08.889Z,5.47
2022-10-26T16:57:38.421Z,3.72
2022-10-26T17:00:06.132Z,6.88
2022-10-26T17:02:32.760Z,4.57
2022-10-26T17:05:04.174Z,4.03
2022-10-26T17:07:33.958Z,3.35
2022-10-26T17:10:00.501Z,3.70
2022-10-26T17:12:30.531Z,4.50
2022-10-26T17:14:59.098Z,4.93
2022-10-26T17:17:26.101Z,6.68
2022-10-26T17:19:53.445Z,5.22
2022-10-26T17:22:20.382Z,5.63
2022-10-26T17:24:48.409Z,4.22
2022-10-26T17:27:19.090Z,5.40
2022-10-26T17:29:45.780Z,4.10
2022-10-26T17:32:13.754Z,5.30
2022-10-26T17:34:42.777Z,6.63
2022-10-26T17:37:09.298Z,3.55
2022-10-26T17:39:36.051Z,9.85
2022-10-26T17:42:02.558Z,9.32
2022-10-26T17:44:28.952Z,4.25
2022-10-26T17:46:57.148Z,3.25
2022-10-26T17:49:26.936Z,8.52
2022-10-26T17:51:56.621Z,7.53
2022-10-26T17:54:25.675Z,11.90
2022-10-26T17:56:54.332Z,16.70
2022-10-26T17:59:20.890Z,16.05
2022-10-26T18:01:47.652Z,15.18
2022-10-26T18:04:14.496Z,18.02
2022-10-26T18:06:46.476Z,14.73
2022-10-26T18:09:13.275Z,16.23
2022-10-26T18:11:39.854Z,13.07
2022-10-26T18:14:13.687Z,16.58
2022-10-26T18:16:40.345Z,16.88
2022-10-26T18:19:09.318Z,12.50
2022-10-26T18:21:39.564Z,13.90
2022-10-26T18:24:07.965Z,13.70
2022-10-26T18:26:37.771Z,12.40
2022-10-26T18:29:04.795Z,13.73
2022-10-26T18:31:32.866Z,12.50
2022-10-26T18:34:00.291Z,10.52
2022-10-26T18:36:27.360Z,9.75
2022-10-26T18:39:00.274Z,9.70
2022-10-26T18:41:31.183Z,9.95
2022-10-26T18:44:05.702Z,7.18
2022-10-26T18:46:34.252Z,10.80
2022-10-26T18:49:01.265Z,8.45
2022-10-26T18:51:33.184Z,9.15
2022-10-26T18:54:02.607Z,6.97
2022-10-26T18:56:31.518Z,10.73
2022-10-26T18:58:58.994Z,8.63
2022-10-26T19:01:30.507Z,11.80
2022-10-26T19:04:05.057Z,7.90
2022-10-26T19:06:36.047Z,7.35
2022-10-26T19:09:03.384Z,7.32
2022-10-26T19:11:30.323Z,11.73
2022-10-26T19:13:57.128Z,8.52
2022-10-26T19:19:15.125Z,10.48
2022-10-26T19:21:43.040Z,5.82
2022-10-26T19:24:15.024Z,8.63
2022-10-26T19:26:43.719Z,7.72
2022-10-26T19:29:14.477Z,5.43
2022-10-26T19:31:42.663Z,9.73
2022-10-26T19:34:10.468Z,5.63
2022-10-26T19:36:38.030Z,6.78
2022-10-26T19:39:04.538Z,6.43
2022-10-26T19:41:33.972Z,8.75
2022-10-26T19:44:02.774Z,6.93
2022-10-26T19:46:33.358Z,6.93
2022-10-26T19:49:02.634Z,6.10
2022-10-26T19:51:35.091Z,8.93
2022-10-26T19:54:07.054Z,6.55
2022-10-26T19:56:35.711Z,7.68
2022-10-26T19:59:02.496Z,4.97
2022-10-26T20:01:31.769Z,5.43
2022-10-26T20:03:58.229Z,10.48
2022-10-26T20:06:26.111Z,7.10
2022-10-26T20:08:54.326Z,10.90
2022-10-26T20:11:20.894Z,7.38
2022-10-26T20:13:48.269Z,6.88
2022-10-26T20:16:16.638Z,9.90
2022-10-26T20:18:48.763Z,6.20
2022-10-26T20:21:17.009Z,4.40
2022-10-26T20:23:44.366Z,5.93
2022-10-26T20:26:18.113Z,6.60
2022-10-26T20:28:50.924Z,5.88
2022-10-26T20:31:17.835Z,6.10
2022-10-26T20:33:44.879Z,9.10
2022-10-26T20:36:11.433Z,7.15
2022-10-26T20:38:38.859Z,8.48
2022-10-26T20:41:07.996Z,8.80
2022-10-26T20:43:39.466Z,8.50
2022-10-26T20:46:06.999Z,5.82
2022-10-26T20:48:34.414Z,8.43
2022-10-26T20:51:06.636Z,8.10
2022-10-26T20:53:44.608Z,6.78
2022-10-26T20:56:19.427Z,8.18
2022-10-26T20:58:58.439Z,7.20
2022-10-26T21:01:25.301Z,8.88
2022-10-26T21:03:52.491Z,6.10
2022-10-26T21:06:19.889Z,10.15
2022-10-26T21:08:48.179Z,4.78
2022-10-26T21:11:15.694Z,5.32
2022-10-26T21:13:43.851Z,5.28
2022-10-26T21:16:10.468Z,5.88
2022-10-26T21:18:37.080Z,5.68
2022-10-26T21:21:03.718Z,7.60
2022-10-26T21:23:33.890Z,6.82
2022-10-26T21:26:00.713Z,5.72
2022-10-26T21:28:32.391Z,9.63
2022-10-26T21:31:02.971Z,5.32
2022-10-26T21:33:32.043Z,5.78
2022-10-26T21:36:01.981Z,7.18
2022-10-26T21:38:29.676Z,6.10
2022-10-26T21:41:02.682Z,10.25
2022-10-26T21:43:29.110Z,6.93
2022-10-26T21:45:59.355Z,7.90
2022-10-26T21:48:29.742Z,8.23
2022-10-26T21:50:56.502Z,7.97
2022-10-26T21:53:26.241Z,4.90
2022-10-26T21:55:59.084Z,5.35
2022-10-26T21:58:30.921Z,8.90
2022-10-26T22:01:06.158Z,7.50
2022-10-26T22:03:32.942Z,6.90
2022-10-26T22:05:59.657Z,7.53
2022-10-26T22:08:26.481Z,5.82
2022-10-26T22:10:53.455Z,8.00
2022-10-26T22:13:19.912Z,5.25
2022-10-26T22:15:47.654Z,7.38
2022-10-26T22:18:14.431Z,6.72
2022-10-26T22:20:41.140Z,6.15
2022-10-26T22:23:08.897Z,7.13
2022-10-26T22:25:35.719Z,6.65
2022-10-26T22:28:02.192Z,10.45
2022-10-26T22:30:28.701Z,9.50
2022-10-26T22:32:55.229Z,6.72
2022-10-26T22:35:29.511Z,7.45
2022-10-26T22:37:56.518Z,8.48
2022-10-26T22:40:23.125Z,6.75
2022-10-26T22:42:53.038Z,8.15
2022-10-26T22:45:19.685Z,7.60
2022-10-26T22:47:46.153Z,7.35
2022-10-26T22:50:12.648Z,6.60
2022-10-26T22:52:39.200Z,7.20
2022-10-26T22:55:13.308Z,10.40
2022-10-26T22:57:39.777Z,7.47
2022-10-26T23:00:07.207Z,9.45
2022-10-26T23:02:33.606Z,8.38
2022-10-26T23:05:01.254Z,9.48
2022-10-26T23:07:29.201Z,10.55
2022-10-26T23:09:55.774Z,10.15
2022-10-26T23:12:22.147Z,10.43
2022-10-26T23:14:48.850Z,7.55
2022-10-26T23:17:15.741Z,9.63
2022-10-26T23:19:42.258Z,8.45
2022-10-26T23:22:08.694Z,7.13
2022-10-26T23:24:35.144Z,9.02
2022-10-26T23:27:01.582Z,8.80
2022-10-26T23:29:28.129Z,10.55
2022-10-26T23:31:54.735Z,7.32
2022-10-26T23:34:21.171Z,9.13
2022-10-26T23:36:48.089Z,8.82
2022-10-26T23:39:14.530Z,17.95
2022-10-26T23:41:44.668Z,10.90
2022-10-26T23:44:12.572Z,9.27
2022-10-26T23:46:39.246Z,8.07
2022-10-26T23:49:05.673Z,6.68
2022-10-26T23:51:33.478Z,7.68
2022-10-26T23:54:00.077Z,8.35
2022-10-26T23:56:26.744Z,9.07
2022-10-26T23:58:53.191Z,8.98
